createdAt,value
2017-04-17T00:00:15.523Z,0
2017-04-17T00:01:17.671Z,0
2017-04-17T00:02:19.467Z,0
2017-04-17T00:03:21.601Z,0
2017-04-17T00:04:23.737Z,0
2017-04-17T00:05:26.216Z,0
2017-04-17T00:06:28.014Z,0
2017-04-17T00:07:29.982Z,0
2017-04-17T00:08:31.778Z,0
2017-04-17T00:09:33.579Z,0
2017-04-17T00:10:35.378Z,0
2017-04-17T00:11:37.524Z,0
2017-04-17T00:12:39.322Z,0
2017-04-17T00:13:41.125Z,0
2017-04-17T00:14:42.920Z,0
2017-04-17T00:15:44.722Z,0
2017-04-17T00:16:46.523Z,0
2017-04-17T00:17:48.324Z,0
2017-04-17T00:18:50.121Z,0
2017-04-17T00:19:52.293Z,0
2017-04-17T00:20:54.100Z,0
2017-04-17T00:21:55.893Z,0
2017-04-17T00:22:57.693Z,0
2017-04-17T00:24:00.165Z,0
2017-04-17T00:25:01.963Z,0
2017-04-17T00:26:04.106Z,0
2017-04-17T00:27:05.902Z,0
2017-04-17T00:28:07.695Z,0
2017-04-17T00:29:09.496Z,0
2017-04-17T00:30:11.293Z,0
2017-04-17T00:31:13.090Z,0
2017-04-17T00:32:15.007Z,0
2017-04-17T00:33:16.809Z,0
2017-04-17T00:34:18.602Z,0
2017-04-17T00:35:20.398Z,0
2017-04-17T00:36:22.535Z,0
2017-04-17T00:37:24.328Z,0
2017-04-17T00:38:26.473Z,0
2017-04-17T00:39:28.622Z,0
2017-04-17T00:40:30.416Z,0
2017-04-17T00:41:32.233Z,0
2017-04-17T00:42:34.371Z,0
2017-04-17T00:43:36.502Z,0
2017-04-17T00:44:38.840Z,0
2017-04-17T00:45:40.968Z,0
2017-04-17T00:46:43.105Z,0
2017-04-17T00:47:44.897Z,0
2017-04-17T00:48:46.692Z,0
2017-04-17T00:49:48.482Z,0
2017-04-17T00:50:50.281Z,0
2017-04-17T00:51:52.418Z,0
2017-04-17T00:52:54.216Z,0
2017-04-17T00:53:56.347Z,0
2017-04-17T00:54:58.153Z,0
2017-04-17T00:56:00.092Z,0
2017-04-17T00:57:02.165Z,0
2017-04-17T00:58:03.962Z,0
2017-04-17T00:59:05.755Z,0
2017-04-17T01:00:07.551Z,0
2017-04-17T01:01:09.343Z,0
2017-04-17T01:02:11.139Z,0
2017-04-17T01:03:12.935Z,0
2017-04-17T01:04:15.074Z,0
2017-04-17T01:05:17.211Z,0
2017-04-17T01:06:19.000Z,0
2017-04-17T01:07:20.793Z,0
2017-04-17T01:08:22.849Z,0
2017-04-17T01:09:25.318Z,0
2017-04-17T01:10:27.114Z,0
2017-04-17T01:11:28.906Z,0
2017-04-17T01:12:30.703Z,0
2017-04-17T01:13:32.503Z,0
2017-04-17T01:14:34.298Z,0
2017-04-17T01:15:36.102Z,0
2017-04-17T01:16:38.229Z,0
2017-04-17T01:17:40.027Z,0
2017-04-17T01:18:41.828Z,0
2017-04-17T01:19:44.300Z,0
2017-04-17T01:20:46.234Z,0
2017-04-17T01:21:48.029Z,0
2017-04-17T01:22:50.166Z,0
2017-04-17T01:23:52.302Z,0
2017-04-17T01:24:54.094Z,0
2017-04-17T01:25:55.893Z,0
2017-04-17T01:26:57.687Z,0
2017-04-17T01:27:59.480Z,0
2017-04-17T01:29:01.274Z,0
2017-04-17T01:30:03.072Z,0
2017-04-17T01:31:04.867Z,0
2017-04-17T01:32:06.661Z,0
2017-04-17T01:33:08.707Z,0
2017-04-17T01:34:11.103Z,0
2017-04-17T01:35:12.902Z,0
2017-04-17T01:36:14.703Z,0
2017-04-17T01:37:16.500Z,0
2017-04-17T01:38:18.293Z,0
2017-04-17T01:39:20.092Z,0
2017-04-17T01:40:21.883Z,0
2017-04-17T01:41:23.680Z,0
2017-04-17T01:42:25.474Z,0
2017-04-17T01:43:27.271Z,0
2017-04-17T01:44:29.066Z,0
2017-04-17T01:45:30.872Z,0
2017-04-17T01:46:32.784Z,0
2017-04-17T01:47:34.577Z,0
2017-04-17T01:48:36.372Z,0
2017-04-17T01:49:38.845Z,0
2017-04-17T01:50:40.640Z,0
2017-04-17T01:51:42.440Z,0
2017-04-17T01:52:44.232Z,0
2017-04-17T01:53:46.364Z,0
2017-04-17T01:54:48.497Z,0
2017-04-17T01:55:50.300Z,0
2017-04-17T01:56:52.098Z,0
2017-04-17T01:57:53.897Z,0
2017-04-17T01:58:56.255Z,0
2017-04-17T01:59:58.048Z,0
2017-04-17T02:00:59.843Z,0
2017-04-17T02:02:01.640Z,0
2017-04-17T02:03:03.432Z,0
2017-04-17T02:04:05.239Z,0
2017-04-17T02:05:07.041Z,0
2017-04-17T02:06:09.173Z,0
2017-04-17T02:07:11.304Z,0
2017-04-17T02:08:13.100Z,0
2017-04-17T02:09:14.903Z,0
2017-04-17T02:10:17.031Z,0
2017-04-17T02:11:19.361Z,0
2017-04-17T02:12:21.156Z,0
2017-04-17T02:13:23.293Z,0
2017-04-17T02:14:25.090Z,0
2017-04-17T02:15:26.887Z,0
2017-04-17T02:16:28.684Z,0
2017-04-17T02:17:30.808Z,0
2017-04-17T02:18:32.609Z,0
2017-04-17T02:19:34.409Z,0
2017-04-17T02:20:36.204Z,0
2017-04-17T02:21:37.998Z,0
2017-04-17T02:22:39.794Z,0
2017-04-17T02:23:41.672Z,0
2017-04-17T02:24:43.469Z,0
2017-04-17T02:25:45.263Z,0
2017-04-17T02:26:47.058Z,0
2017-04-17T02:27:48.859Z,0
2017-04-17T02:28:50.659Z,0
2017-04-17T02:29:52.453Z,0
2017-04-17T02:30:54.247Z,0
2017-04-17T02:31:56.042Z,0
2017-04-17T02:32:57.837Z,0
2017-04-17T02:33:59.628Z,0
2017-04-17T02:35:01.424Z,0
2017-04-17T02:36:03.557Z,0
2017-04-17T02:37:05.350Z,0
2017-04-17T02:38:07.148Z,0
2017-04-17T02:39:08.939Z,0
2017-04-17T02:40:10.733Z,0
2017-04-17T02:41:12.535Z,0
2017-04-17T02:42:14.328Z,0
2017-04-17T02:43:16.125Z,0
2017-04-17T02:44:17.922Z,0
2017-04-17T02:45:19.721Z,0
2017-04-17T02:46:21.513Z,0
2017-04-17T02:47:23.370Z,0
2017-04-17T02:48:25.162Z,0
2017-04-17T02:49:26.958Z,0
2017-04-17T02:50:28.755Z,0
2017-04-17T02:51:30.547Z,0
2017-04-17T02:52:32.339Z,0
2017-04-17T02:53:34.470Z,0
2017-04-17T02:54:36.282Z,0
2017-04-17T02:55:38.413Z,0
2017-04-17T02:56:40.545Z,0
2017-04-17T02:57:42.343Z,0
2017-04-17T02:58:44.135Z,0
2017-04-17T02:59:45.989Z,0
2017-04-17T03:00:47.784Z,0
2017-04-17T03:01:49.582Z,0
2017-04-17T03:02:51.375Z,0
2017-04-17T03:03:53.171Z,0
2017-04-17T03:04:55.303Z,0
2017-04-17T03:05:57.440Z,0
2017-04-17T03:06:59.227Z,0
2017-04-17T03:08:01.024Z,0
2017-04-17T03:09:02.818Z,0
2017-04-17T03:10:04.613Z,0
2017-04-17T03:11:06.409Z,0
2017-04-17T03:12:08.403Z,0
2017-04-17T03:13:10.200Z,0
2017-04-17T03:14:12.346Z,0
2017-04-17T03:15:14.144Z,0
2017-04-17T03:16:16.295Z,0
2017-04-17T03:17:18.091Z,0
2017-04-17T03:18:19.895Z,0
2017-04-17T03:19:21.690Z,0
2017-04-17T03:20:23.494Z,0
2017-04-17T03:21:25.288Z,0
2017-04-17T03:22:27.082Z,0
2017-04-17T03:23:29.234Z,0
2017-04-17T03:24:31.161Z,0
2017-04-17T03:25:32.951Z,0
2017-04-17T03:26:34.752Z,0
2017-04-17T03:27:36.543Z,1
2017-04-17T03:28:38.345Z,1
2017-04-17T03:29:40.138Z,1
2017-04-17T03:30:41.933Z,1
2017-04-17T03:31:43.728Z,1
2017-04-17T03:32:45.523Z,1
2017-04-17T03:33:47.320Z,2
2017-04-17T03:34:49.451Z,2
2017-04-17T03:35:51.250Z,1
2017-04-17T03:36:53.246Z,1
2017-04-17T03:37:55.044Z,3
2017-04-17T03:38:57.177Z,3
2017-04-17T03:39:59.650Z,3
2017-04-17T03:41:01.448Z,3
2017-04-17T03:42:03.243Z,5
2017-04-17T03:43:05.032Z,4
2017-04-17T03:44:06.831Z,5
2017-04-17T03:45:08.968Z,7
2017-04-17T03:46:11.105Z,8
2017-04-17T03:47:12.904Z,10
2017-04-17T03:48:14.744Z,11
2017-04-17T03:49:16.881Z,14
2017-04-17T03:50:18.679Z,15
2017-04-17T03:51:20.470Z,18
2017-04-17T03:52:22.270Z,20
2017-04-17T03:53:24.067Z,24
2017-04-17T03:54:25.871Z,27
2017-04-17T03:55:28.006Z,30
2017-04-17T03:56:29.803Z,35
2017-04-17T03:57:31.602Z,41
2017-04-17T03:58:33.400Z,45
2017-04-17T03:59:35.191Z,51
2017-04-17T04:00:38.119Z,58
2017-04-17T04:01:39.917Z,64
2017-04-17T04:02:41.710Z,72
2017-04-17T04:03:43.513Z,83
2017-04-17T04:04:45.301Z,92
2017-04-17T04:05:47.096Z,104
2017-04-17T04:06:48.891Z,115
2017-04-17T04:07:50.693Z,127
2017-04-17T04:08:52.483Z,138
2017-04-17T04:09:54.280Z,154
2017-04-17T04:10:56.073Z,167
2017-04-17T04:11:57.866Z,182
2017-04-17T04:12:59.683Z,196
2017-04-17T04:14:01.479Z,212
2017-04-17T04:15:03.273Z,231
2017-04-17T04:16:05.425Z,248
2017-04-17T04:17:07.222Z,262
2017-04-17T04:18:09.018Z,272
2017-04-17T04:19:10.820Z,290
2017-04-17T04:20:12.614Z,310
2017-04-17T04:21:14.410Z,320
2017-04-17T04:22:16.205Z,338
2017-04-17T04:23:18.000Z,348
2017-04-17T04:24:19.937Z,366
2017-04-17T04:25:21.731Z,394
2017-04-17T04:26:23.526Z,413
2017-04-17T04:27:25.322Z,435
2017-04-17T04:28:27.117Z,461
2017-04-17T04:29:28.908Z,492
2017-04-17T04:30:30.704Z,521
2017-04-17T04:31:32.502Z,539
2017-04-17T04:32:34.297Z,566
2017-04-17T04:33:36.444Z,586
2017-04-17T04:34:38.573Z,602
2017-04-17T04:35:40.368Z,619
2017-04-17T04:36:42.261Z,642
2017-04-17T04:37:44.055Z,663
2017-04-17T04:38:45.849Z,677
2017-04-17T04:39:47.977Z,701
2017-04-17T04:40:49.779Z,715
2017-04-17T04:41:51.920Z,712
2017-04-17T04:42:53.732Z,752
2017-04-17T04:43:55.529Z,821
2017-04-17T04:44:57.326Z,886
2017-04-17T04:45:59.126Z,895
2017-04-17T04:47:00.923Z,858
2017-04-17T04:48:02.808Z,853
2017-04-17T04:49:04.609Z,885
2017-04-17T04:50:06.743Z,944
2017-04-17T04:51:08.538Z,1017
2017-04-17T04:52:10.332Z,1036
2017-04-17T04:53:12.131Z,1011
2017-04-17T04:54:13.961Z,1059
2017-04-17T04:55:16.097Z,1090
2017-04-17T04:56:17.981Z,1155
2017-04-17T04:57:19.789Z,1183
2017-04-17T04:58:21.654Z,1177
2017-04-17T04:59:23.466Z,1158
2017-04-17T05:00:25.413Z,1155
2017-04-17T05:01:27.242Z,1175
2017-04-17T05:02:29.064Z,1205
2017-04-17T05:03:30.865Z,1240
2017-04-17T05:04:33.252Z,1279
2017-04-17T05:05:35.129Z,1299
2017-04-17T05:06:37.276Z,1327
2017-04-17T05:07:39.154Z,1365
2017-04-17T05:08:40.953Z,1386
2017-04-17T05:09:42.785Z,1407
2017-04-17T05:10:44.577Z,1425
2017-04-17T05:11:46.431Z,1443
2017-04-17T05:12:48.223Z,1462
2017-04-17T05:13:50.724Z,1492
2017-04-17T05:14:52.526Z,1506
2017-04-17T05:15:54.455Z,1553
2017-04-17T05:16:56.257Z,1539
2017-04-17T05:17:58.054Z,1550
2017-04-17T05:18:59.996Z,1586
2017-04-17T05:20:02.132Z,1638
2017-04-17T05:21:04.414Z,1699
2017-04-17T05:22:06.548Z,1842
2017-04-17T05:23:08.423Z,1874
2017-04-17T05:24:10.556Z,1893
2017-04-17T05:25:12.362Z,1872
2017-04-17T05:26:14.166Z,1776
2017-04-17T05:27:15.962Z,1738
2017-04-17T05:28:18.150Z,1705
2017-04-17T05:29:20.292Z,1736
2017-04-17T05:30:22.145Z,1749
2017-04-17T05:31:23.949Z,1769
2017-04-17T05:32:25.831Z,1836
2017-04-17T05:33:27.647Z,1844
2017-04-17T05:34:29.575Z,1809
2017-04-17T05:35:31.448Z,1827
2017-04-17T05:36:33.253Z,1821
2017-04-17T05:37:35.083Z,1815
2017-04-17T05:38:36.937Z,1825
2017-04-17T05:39:39.509Z,1850
2017-04-17T05:40:41.927Z,1887
2017-04-17T05:41:44.372Z,1947
2017-04-17T05:42:46.827Z,1948
2017-04-17T05:44:12.047Z,1965
2017-04-17T05:46:03.724Z,1984
2017-04-17T05:47:07.207Z,2001
2017-04-17T05:48:09.512Z,2000
2017-04-17T05:49:11.894Z,2034
2017-04-17T05:50:14.222Z,2036
2017-04-17T05:51:16.642Z,2046
2017-04-17T05:54:05.847Z,2090
2017-04-17T05:55:08.126Z,2089
2017-04-17T05:56:10.383Z,2112
2017-04-17T05:57:12.743Z,2122
2017-04-17T05:58:14.986Z,2129
2017-04-17T05:59:17.322Z,2136
2017-04-17T06:00:19.700Z,2126
2017-04-17T06:01:22.068Z,2138
2017-04-17T06:02:24.291Z,2189
2017-04-17T06:03:26.686Z,2167
2017-04-17T06:04:28.964Z,2195
2017-04-17T06:05:31.213Z,2209
2017-04-17T06:06:33.543Z,2187
2017-04-17T06:07:35.790Z,2212
2017-04-17T06:08:38.439Z,2214
2017-04-17T06:09:40.657Z,2247
2017-04-17T06:10:43.042Z,2325
2017-04-17T06:11:45.302Z,2384
2017-04-17T06:12:47.658Z,2271
2017-04-17T06:13:49.961Z,2304
2017-04-17T06:14:52.334Z,2432
2017-04-17T06:15:54.613Z,2480
2017-04-17T06:16:56.849Z,2697
2017-04-17T06:17:58.872Z,3349
2017-04-17T06:19:01.144Z,3182
2017-04-17T06:20:03.134Z,2601
2017-04-17T06:21:05.102Z,2517
2017-04-17T06:22:07.107Z,2980
2017-04-17T06:23:08.912Z,2834
2017-04-17T06:24:10.712Z,2719
2017-04-17T06:25:12.714Z,2899
2017-04-17T06:26:14.523Z,2561
2017-04-17T06:27:18.412Z,2587
2017-04-17T06:28:23.479Z,2605
2017-04-17T06:29:25.494Z,2589
2017-04-17T06:30:27.362Z,2603
2017-04-17T06:31:29.163Z,2594
2017-04-17T06:32:30.959Z,2525
2017-04-17T06:33:32.757Z,2532
2017-04-17T06:34:34.886Z,2574
2017-04-17T06:35:36.687Z,2550
2017-04-17T06:36:38.481Z,2533
2017-04-17T06:37:40.631Z,2533
2017-04-17T06:38:42.583Z,2566
2017-04-17T06:39:44.380Z,2533
2017-04-17T06:40:46.178Z,2533
2017-04-17T06:41:47.999Z,2580
2017-04-17T06:42:50.138Z,2589
2017-04-17T06:43:51.939Z,2557
2017-04-17T06:44:53.742Z,2566
2017-04-17T06:45:55.540Z,2557
2017-04-17T06:46:57.342Z,2589
2017-04-17T06:47:59.142Z,2677
2017-04-17T06:49:00.973Z,2699
2017-04-17T06:50:02.923Z,2697
2017-04-17T06:51:05.063Z,2666
2017-04-17T06:52:06.859Z,2659
2017-04-17T06:53:08.672Z,2715
2017-04-17T06:54:11.026Z,2715
2017-04-17T06:55:13.082Z,2706
2017-04-17T06:56:15.152Z,2730
2017-04-17T06:57:16.955Z,2737
2017-04-17T06:58:18.762Z,2754
2017-04-17T06:59:21.170Z,2732
2017-04-17T07:00:23.355Z,2811
2017-04-17T07:01:25.334Z,2807
2017-04-17T07:02:27.141Z,2925
2017-04-17T07:03:29.279Z,3121
2017-04-17T07:04:31.085Z,3186
2017-04-17T07:05:32.885Z,2962
2017-04-17T07:06:34.685Z,3033
2017-04-17T07:07:36.494Z,3835
2017-04-17T07:08:38.299Z,3689
2017-04-17T07:09:40.113Z,3507
2017-04-17T07:10:41.912Z,3232
2017-04-17T07:11:44.086Z,3347
2017-04-17T07:12:45.896Z,3644
2017-04-17T07:15:19.374Z,3282
2017-04-17T07:16:21.235Z,3193
2017-04-17T07:17:23.122Z,3153
2017-04-17T07:18:25.429Z,3166
2017-04-17T07:19:33.851Z,3491
2017-04-17T07:20:36.501Z,3758
2017-04-17T07:21:55.082Z,3408
2017-04-17T07:23:16.477Z,3228
2017-04-17T07:24:22.607Z,3181
2017-04-17T07:25:24.408Z,3205
2017-04-17T07:26:26.210Z,3246
2017-04-17T07:27:28.263Z,3309
2017-04-17T07:28:30.144Z,3300
2017-04-17T07:29:32.292Z,3284
2017-04-17T07:30:34.089Z,3317
2017-04-17T07:31:36.775Z,3355
2017-04-17T07:32:38.570Z,3657
2017-04-17T07:33:40.372Z,3923
2017-04-17T07:34:42.444Z,4064
2017-04-17T07:35:44.241Z,4099
2017-04-17T07:36:46.040Z,3966
2017-04-17T07:37:48.183Z,3830
2017-04-17T07:38:50.320Z,3794
2017-04-17T07:39:52.117Z,3977
2017-04-17T07:40:53.917Z,4473
2017-04-17T07:41:55.723Z,5270
2017-04-17T07:42:57.522Z,6098
2017-04-17T07:43:59.475Z,7491
2017-04-17T07:45:01.277Z,7750
2017-04-17T07:46:03.083Z,7534
2017-04-17T07:47:04.889Z,6924
2017-04-17T07:48:06.688Z,6137
2017-04-17T07:49:08.487Z,6132
2017-04-17T07:50:10.286Z,6098
2017-04-17T07:51:12.322Z,6112
2017-04-17T07:52:14.120Z,5984
2017-04-17T07:53:15.922Z,5560
2017-04-17T07:54:18.062Z,5216
2017-04-17T07:55:19.870Z,5057
2017-04-17T07:56:21.780Z,4913
2017-04-17T07:57:23.579Z,4867
2017-04-17T07:58:25.378Z,5350
2017-04-17T07:59:27.524Z,6109
2017-04-17T08:00:29.322Z,5955
2017-04-17T08:01:31.128Z,5424
2017-04-17T08:02:32.925Z,5573
2017-04-17T08:03:35.269Z,5728
2017-04-17T08:04:37.754Z,5616
2017-04-17T08:05:39.559Z,5674
2017-04-17T08:06:41.363Z,5528
2017-04-17T08:07:43.166Z,6012
2017-04-17T08:08:45.317Z,7381
2017-04-17T08:09:47.332Z,7946
2017-04-17T08:10:49.474Z,7529
2017-04-17T08:11:51.523Z,6155
2017-04-17T08:12:53.326Z,5741
2017-04-17T08:13:55.130Z,6542
2017-04-17T08:14:56.942Z,7352
2017-04-17T08:15:59.113Z,7032
2017-04-17T08:17:00.921Z,6934
2017-04-17T08:18:02.723Z,7734
2017-04-17T08:19:04.533Z,7801
2017-04-17T08:20:06.335Z,7025
2017-04-17T08:21:08.586Z,6420
2017-04-17T08:22:10.724Z,5861
2017-04-17T08:23:12.542Z,6021
2017-04-17T08:24:14.349Z,6050
2017-04-17T08:25:16.157Z,6453
2017-04-17T08:26:17.966Z,6655
2017-04-17T08:27:19.889Z,6845
2017-04-17T08:28:21.693Z,7704
2017-04-17T08:29:23.508Z,8711
2017-04-17T08:30:25.651Z,10344
2017-04-17T08:31:27.453Z,11613
2017-04-17T08:32:29.832Z,10703
2017-04-17T08:33:31.635Z,8967
2017-04-17T08:34:33.705Z,7477
2017-04-17T08:35:35.516Z,6852
2017-04-17T08:36:37.668Z,6649
2017-04-17T08:37:39.467Z,6266
2017-04-17T08:38:41.288Z,5833
2017-04-17T08:39:43.587Z,5517
2017-04-17T08:40:45.400Z,5778
2017-04-17T08:45:06.551Z,14208
2017-04-17T08:46:08.363Z,13211
2017-04-17T08:47:10.171Z,11990
2017-04-17T08:48:11.977Z,9866
2017-04-17T08:49:13.844Z,8166
2017-04-17T08:50:15.647Z,7556
2017-04-17T08:51:17.467Z,6693
2017-04-17T08:52:19.492Z,6744
2017-04-17T08:53:21.534Z,6393
2017-04-17T08:54:23.438Z,7726
2017-04-17T08:55:25.397Z,10087
2017-04-17T08:56:27.366Z,10523
2017-04-17T08:57:29.556Z,10026
2017-04-17T08:58:31.366Z,9059
2017-04-17T08:59:33.514Z,8703
2017-04-17T09:00:35.316Z,8318
2017-04-17T09:01:37.321Z,8300
2017-04-17T09:02:39.125Z,8385
2017-04-17T09:03:40.937Z,9237
2017-04-17T09:04:42.745Z,8648
2017-04-17T09:05:44.918Z,9168
2017-04-17T09:06:46.728Z,10686
2017-04-17T09:07:48.535Z,13761
2017-04-17T09:08:50.341Z,14386
2017-04-17T09:09:52.314Z,13093
2017-04-17T09:10:54.127Z,11544
2017-04-17T09:11:55.937Z,10229
2017-04-17T09:12:57.987Z,9433
2017-04-17T09:13:59.793Z,9586
2017-04-17T09:15:01.603Z,10218
2017-04-17T09:16:03.579Z,10808
2017-04-17T09:17:05.934Z,10214
2017-04-17T09:18:07.770Z,8314
2017-04-17T09:19:09.933Z,8296
2017-04-17T09:20:11.742Z,9658
2017-04-17T09:21:13.562Z,11812
2017-04-17T09:22:15.640Z,11359
2017-04-17T09:23:17.555Z,12035
2017-04-17T09:24:19.358Z,13447
2017-04-17T09:25:21.169Z,12546
2017-04-17T09:26:22.970Z,11945
2017-04-17T09:27:24.788Z,11438
2017-04-17T09:28:28.273Z,11314
2017-04-17T09:29:30.289Z,13293
2017-04-17T09:30:32.098Z,14268
2017-04-17T09:31:33.905Z,14369
2017-04-17T09:32:36.052Z,14565
2017-04-17T09:33:38.485Z,13608
2017-04-17T09:34:40.330Z,14379
2017-04-17T09:35:42.423Z,15583
2017-04-17T09:36:44.229Z,16758
2017-04-17T09:37:46.045Z,11931
2017-04-17T09:38:48.180Z,12345
2017-04-17T09:39:50.089Z,7014
2017-04-17T09:40:51.897Z,6305
2017-04-17T09:41:53.725Z,6493
2017-04-17T09:42:55.893Z,7387
2017-04-17T09:43:58.188Z,12064
2017-04-17T09:45:00.370Z,65536
2017-04-17T09:46:02.681Z,12694
2017-04-17T09:47:04.778Z,12094
2017-04-17T09:48:06.590Z,11354
2017-04-17T09:49:08.586Z,14922
2017-04-17T09:50:10.881Z,65536
2017-04-17T09:51:12.739Z,65536
2017-04-17T09:52:14.642Z,27776
2017-04-17T09:53:16.673Z,65536
2017-04-17T09:54:18.491Z,17425
2017-04-17T09:55:20.514Z,13554
2017-04-17T09:56:22.329Z,10605
2017-04-17T09:57:24.145Z,8489
2017-04-17T09:58:26.289Z,7721
2017-04-17T09:59:28.785Z,7717
2017-04-17T10:00:30.704Z,7792
2017-04-17T10:01:32.626Z,7678
2017-04-17T10:02:35.139Z,7764
2017-04-17T10:03:37.613Z,13372
2017-04-17T10:04:39.759Z,65536
2017-04-17T10:05:41.565Z,65536
2017-04-17T10:06:43.562Z,65536
2017-04-17T10:07:45.366Z,37163
2017-04-17T10:08:47.186Z,20789
2017-04-17T10:09:48.998Z,19172
2017-04-17T10:10:51.029Z,65536
2017-04-17T10:11:52.834Z,15510
2017-04-17T10:12:54.642Z,10026
2017-04-17T10:13:56.899Z,8611
2017-04-17T10:14:58.723Z,7197
2017-04-17T10:16:00.534Z,7372
2017-04-17T10:17:02.355Z,8734
2017-04-17T10:18:04.513Z,29330
2017-04-17T10:19:06.330Z,65536
2017-04-17T10:20:09.451Z,65536
2017-04-17T10:21:11.603Z,65536
2017-04-17T10:22:13.406Z,65536
2017-04-17T10:23:15.477Z,65536
2017-04-17T10:24:17.283Z,65536
2017-04-17T10:25:19.093Z,65536
2017-04-17T10:26:21.068Z,65536
2017-04-17T10:27:23.108Z,20711
2017-04-17T10:28:24.916Z,21992
2017-04-17T10:29:26.736Z,14693
2017-04-17T10:30:28.547Z,12467
2017-04-17T10:31:30.361Z,10400
2017-04-17T10:32:32.179Z,9276
2017-04-17T10:33:34.230Z,8786
2017-04-17T10:34:36.049Z,8381
2017-04-17T10:35:38.200Z,8322
2017-04-17T10:36:40.022Z,8534
2017-04-17T10:37:42.154Z,9704
2017-04-17T10:38:44.103Z,11640
2017-04-17T10:39:45.920Z,12885
2017-04-17T10:40:47.731Z,11656
2017-04-17T10:41:49.549Z,12242
2017-04-17T10:42:51.379Z,15820
2017-04-17T10:43:53.195Z,38641
2017-04-17T10:44:55.338Z,65536
2017-04-17T10:45:57.149Z,65536
2017-04-17T10:46:59.513Z,65536
2017-04-17T10:48:01.338Z,65536
2017-04-17T10:49:03.495Z,18968
2017-04-17T10:50:05.313Z,12691
2017-04-17T10:51:07.327Z,11343
2017-04-17T10:52:09.190Z,11015
2017-04-17T10:53:11.018Z,11223
2017-04-17T10:54:13.058Z,12006
2017-04-17T10:55:14.900Z,13015
2017-04-17T10:56:16.906Z,13762
2017-04-17T10:57:19.227Z,14082
2017-04-17T10:58:22.018Z,14859
2017-04-17T10:59:23.832Z,65536
2017-04-17T11:00:25.778Z,65536
2017-04-17T11:01:27.586Z,65536
2017-04-17T11:02:29.991Z,65536
2017-04-17T11:03:31.989Z,65536
2017-04-17T11:04:33.805Z,65536
2017-04-17T11:05:36.109Z,65536
2017-04-17T11:06:45.223Z,65536
2017-04-17T11:07:53.790Z,65536
2017-04-17T11:09:01.104Z,65536
2017-04-17T11:10:06.479Z,65536
2017-04-17T11:11:11.815Z,65536
2017-04-17T11:12:17.071Z,65536
2017-04-17T11:13:22.959Z,65536
2017-04-17T11:14:31.113Z,65536
2017-04-17T11:15:45.942Z,65536
2017-04-17T11:16:52.855Z,29685
2017-04-17T11:18:00.382Z,32262
2017-04-17T11:19:19.170Z,65536
2017-04-17T11:22:42.667Z,18965
2017-04-17T11:24:39.071Z,21692
2017-04-17T11:28:53.273Z,12826
2017-04-17T11:29:55.333Z,12557
2017-04-17T11:30:57.152Z,12983
2017-04-17T11:31:58.982Z,14591
2017-04-17T11:33:00.799Z,65536
2017-04-17T11:34:02.615Z,65536
2017-04-17T11:37:10.722Z,18669
2017-04-17T11:38:12.544Z,65536
2017-04-17T11:39:14.381Z,65536
2017-04-17T11:40:16.186Z,65536
2017-04-17T11:41:18.008Z,65536
2017-04-17T11:42:19.971Z,65536
2017-04-17T11:43:21.782Z,65536
2017-04-17T11:44:23.597Z,65536
2017-04-17T11:46:01.468Z,65536
2017-04-17T11:56:11.297Z,11709
2017-04-17T11:57:19.728Z,13914
2017-04-17T11:58:27.319Z,65536
2017-04-17T11:59:33.504Z,31408
2017-04-17T12:00:43.993Z,65536
2017-04-17T12:02:02.412Z,65536
2017-04-17T12:03:15.497Z,65536
2017-04-17T12:04:26.580Z,65536
2017-04-17T12:05:38.962Z,65536
2017-04-17T12:06:52.184Z,16129
2017-04-17T12:08:04.369Z,6896
2017-04-17T12:09:18.447Z,5828
2017-04-17T12:10:32.911Z,5399
2017-04-17T12:11:42.506Z,5811
2017-04-17T12:12:52.310Z,7004
2017-04-17T12:14:06.524Z,8866
2017-04-17T12:15:20.769Z,11045
2017-04-17T12:16:37.069Z,12492
2017-04-17T12:17:55.341Z,39400
2017-04-17T12:19:15.529Z,65536
2017-04-17T12:20:36.199Z,65536
2017-04-17T12:21:47.807Z,29660
2017-04-17T12:23:04.978Z,65536
2017-04-17T12:24:30.288Z,65536
2017-04-17T12:25:46.356Z,65536
2017-04-17T12:26:55.554Z,65536
2017-04-17T12:28:05.524Z,65536
2017-04-17T12:29:26.830Z,65536
2017-04-17T12:30:34.252Z,65536
2017-04-17T12:31:46.125Z,65536
2017-04-17T12:32:56.082Z,21332
2017-04-17T12:34:07.639Z,28442
2017-04-17T12:35:20.583Z,20004
2017-04-17T12:36:32.063Z,17518
2017-04-17T12:37:43.263Z,14827
2017-04-17T12:38:52.517Z,11416
2017-04-17T12:40:01.531Z,9219
2017-04-17T12:41:13.152Z,8523
2017-04-17T12:42:23.061Z,8960
2017-04-17T12:43:36.382Z,9166
2017-04-17T12:44:48.228Z,9384
2017-04-17T12:46:04.125Z,9063
2017-04-17T12:47:18.448Z,9800
2017-04-17T12:48:28.979Z,10843
2017-04-17T12:49:32.667Z,65536
2017-04-17T12:50:43.790Z,65536
2017-04-17T12:51:54.662Z,65536
2017-04-17T12:53:06.602Z,65536
2017-04-17T12:54:15.251Z,65536
2017-04-17T12:55:24.472Z,65536
2017-04-17T12:56:33.223Z,65536
2017-04-17T12:57:43.407Z,18997
2017-04-17T12:58:52.477Z,27339
2017-04-17T13:00:00.917Z,16124
2017-04-17T13:01:11.030Z,11278
2017-04-17T13:02:18.734Z,10709
2017-04-17T13:03:27.870Z,10990
2017-04-17T13:04:31.066Z,12723
2017-04-17T13:05:39.754Z,14045
2017-04-17T13:06:52.719Z,12992
2017-04-17T13:08:03.035Z,11911
2017-04-17T13:09:12.850Z,11636
2017-04-17T13:10:21.287Z,10095
2017-04-17T13:11:31.046Z,8101
2017-04-17T13:12:43.087Z,7825
2017-04-17T13:13:50.257Z,7967
2017-04-17T13:15:00.001Z,7980
2017-04-17T13:16:11.011Z,11251
2017-04-17T13:17:19.264Z,13776
2017-04-17T13:18:29.902Z,10800
2017-04-17T13:19:33.145Z,65536
2017-04-17T13:20:45.336Z,65536
2017-04-17T13:21:57.189Z,65536
2017-04-17T13:23:07.924Z,65536
2017-04-17T13:24:18.302Z,65536
2017-04-17T13:25:27.407Z,65536
2017-04-17T13:26:36.304Z,65536
2017-04-17T13:27:45.616Z,65536
2017-04-17T13:28:53.890Z,35224
2017-04-17T13:30:04.310Z,65536
2017-04-17T13:31:12.066Z,65536
2017-04-17T13:32:14.459Z,65536
2017-04-17T13:33:17.079Z,65536
2017-04-17T13:34:20.033Z,65536
2017-04-17T13:35:22.949Z,65536
2017-04-17T13:36:25.130Z,65536
2017-04-17T13:37:27.585Z,65536
2017-04-17T13:38:30.089Z,11751
2017-04-17T13:39:33.151Z,9267
2017-04-17T13:40:35.804Z,7005
2017-04-17T13:41:39.098Z,6174
2017-04-17T13:42:41.682Z,5583
2017-04-17T13:43:44.040Z,5054
2017-04-17T13:44:45.894Z,5054
2017-04-17T13:45:49.584Z,5392
2017-04-17T13:46:56.005Z,65536
2017-04-17T13:48:01.895Z,65536
2017-04-17T13:49:10.976Z,13559
2017-04-17T13:50:19.341Z,6790
2017-04-17T13:51:29.713Z,6646
2017-04-17T13:52:39.321Z,5924
2017-04-17T13:53:51.143Z,5705
2017-04-17T13:54:54.142Z,6154
2017-04-17T13:56:02.796Z,7339
2017-04-17T13:57:17.529Z,8373
2017-04-17T13:58:25.407Z,7935
2017-04-17T13:59:35.768Z,6990
2017-04-17T14:00:44.565Z,6124
2017-04-17T14:01:56.422Z,5345
2017-04-17T14:03:08.266Z,4819
2017-04-17T14:04:16.995Z,4280
2017-04-17T14:05:26.990Z,4060
2017-04-17T14:06:35.948Z,3820
2017-04-17T14:07:49.060Z,3609
2017-04-17T14:08:54.314Z,3423
2017-04-17T14:09:56.491Z,3326
2017-04-17T14:11:01.325Z,3250
2017-04-17T14:12:05.732Z,3369
2017-04-17T14:13:08.174Z,3593
2017-04-17T14:14:12.504Z,3805
2017-04-17T14:15:16.801Z,4028
2017-04-17T14:16:20.322Z,3965
2017-04-17T14:17:23.435Z,3981
2017-04-17T14:18:31.232Z,4244
2017-04-17T14:19:33.329Z,4834
2017-04-17T14:20:36.883Z,6160
2017-04-17T14:21:39.439Z,8519
2017-04-17T14:22:42.576Z,8719
2017-04-17T14:23:46.176Z,8956
2017-04-17T14:24:55.063Z,7564
2017-04-17T14:26:03.680Z,6103
2017-04-17T14:27:10.298Z,4853
2017-04-17T14:28:19.983Z,3861
2017-04-17T14:29:22.997Z,3114
2017-04-17T14:30:25.568Z,2544
2017-04-17T14:31:31.128Z,2109
2017-04-17T14:32:34.011Z,1777
2017-04-17T14:33:42.437Z,1516
2017-04-17T14:34:50.280Z,1406
2017-04-17T14:35:59.402Z,1384
2017-04-17T14:37:04.791Z,1336
2017-04-17T14:38:09.558Z,1288
2017-04-17T14:39:14.728Z,1338
2017-04-17T14:40:23.753Z,1497
2017-04-17T14:41:32.386Z,1754
2017-04-17T14:42:40.315Z,2146
2017-04-17T14:43:49.786Z,2677
2017-04-17T14:44:58.592Z,2978
2017-04-17T14:46:07.072Z,2764
2017-04-17T14:47:15.713Z,2396
2017-04-17T14:48:24.746Z,2154